createdAt,value
2019-03-17T00:02:19.354Z,87.80
2019-03-17T00:04:51.887Z,87.80
2019-03-17T00:07:28.353Z,87.90
2019-03-17T00:10:06.666Z,87.90
2019-03-17T00:12:39.759Z,87.80
2019-03-17T00:15:14.521Z,88.00
2019-03-17T00:17:52.282Z,88.00
2019-03-17T00:20:28.364Z,88.00
2019-03-17T00:23:04.603Z,87.90
2019-03-17T00:25:40.208Z,87.80
2019-03-17T00:28:20.313Z,87.90
2019-03-17T00:30:54.267Z,87.90
2019-03-17T00:33:27.695Z,87.90
2019-03-17T00:36:04.657Z,88.00
2019-03-17T00:38:36.171Z,88.00
2019-03-17T00:41:24.636Z,88.00
2019-03-17T00:43:58.853Z,88.00
2019-03-17T00:46:31.946Z,88.10
2019-03-17T00:49:06.073Z,88.10
2019-03-17T00:51:44.840Z,88.00
2019-03-17T00:54:19.108Z,88.10
2019-03-17T00:56:51.926Z,88.10
2019-03-17T00:59:25.795Z,88.30
2019-03-17T01:02:00.966Z,88.30
2019-03-17T01:04:42.762Z,88.20
2019-03-17T01:07:19.375Z,88.10
2019-03-17T01:09:54.211Z,88.20
2019-03-17T01:12:28.855Z,88.20
2019-03-17T01:15:05.460Z,88.30
2019-03-17T01:17:38.597Z,88.40
2019-03-17T01:20:18.839Z,88.60
2019-03-17T01:22:55.764Z,88.70
2019-03-17T01:25:30.146Z,88.80
2019-03-17T01:28:03.125Z,89.20
2019-03-17T01:30:37.110Z,89.30
2019-03-17T01:33:10.783Z,89.50
2019-03-17T01:35:43.487Z,89.30
2019-03-17T01:38:16.752Z,89.30
2019-03-17T01:40:53.204Z,89.20
2019-03-17T01:43:24.797Z,88.90
2019-03-17T01:45:58.891Z,88.80
2019-03-17T01:48:40.070Z,88.80
2019-03-17T01:51:12.446Z,88.90
2019-03-17T01:53:48.953Z,88.80
2019-03-17T01:58:47.113Z,88.70
2019-03-17T02:01:26.999Z,88.50
2019-03-17T02:04:01.153Z,88.50
2019-03-17T02:06:34.601Z,88.60
2019-03-17T02:09:14.528Z,88.70
2019-03-17T02:11:50.296Z,88.80
2019-03-17T02:14:25.619Z,88.80
2019-03-17T02:16:57.239Z,88.70
2019-03-17T02:19:29.606Z,88.80
2019-03-17T02:22:07.203Z,88.80
2019-03-17T02:24:40.866Z,88.80
2019-03-17T02:27:19.219Z,88.90
2019-03-17T02:29:54.653Z,88.80
2019-03-17T02:32:28.350Z,88.90
2019-03-17T02:35:04.539Z,89.10
2019-03-17T02:37:40.350Z,89.10
2019-03-17T02:40:17.101Z,89.20
2019-03-17T02:42:50.379Z,89.20
2019-03-17T02:45:25.272Z,89.40
2019-03-17T02:47:59.362Z,89.10
2019-03-17T02:50:31.183Z,89.10
2019-03-17T02:53:02.476Z,88.80
2019-03-17T02:55:33.857Z,88.70
2019-03-17T02:58:06.477Z,88.50
2019-03-17T03:00:38.724Z,88.20
2019-03-17T03:03:13.973Z,88.00
2019-03-17T03:05:54.805Z,87.30
2019-03-17T03:08:19.093Z,86.40
2019-03-17T03:10:52.001Z,86.20
2019-03-17T03:13:24.630Z,86.10
2019-03-17T03:15:58.000Z,86.00
2019-03-17T03:18:31.607Z,85.60
2019-03-17T03:21:04.004Z,85.20
2019-03-17T03:23:36.590Z,85.30
2019-03-17T03:26:08.566Z,85.30
2019-03-17T03:28:41.147Z,85.90
2019-03-17T03:31:12.638Z,87.80
2019-03-17T03:33:44.075Z,87.70
2019-03-17T03:36:17.442Z,89.30
2019-03-17T03:38:48.986Z,91.50
2019-03-17T03:41:22.815Z,91.80
2019-03-17T03:43:55.643Z,92.30
2019-03-17T03:46:28.335Z,94.00
2019-03-17T03:48:59.725Z,94.90
2019-03-17T03:51:31.134Z,94.90
2019-03-17T03:54:02.452Z,95.00
2019-03-17T03:56:33.833Z,95.20
2019-03-17T03:59:05.745Z,94.80
2019-03-17T04:01:37.194Z,95.00
2019-03-17T04:04:10.129Z,95.00
2019-03-17T04:06:42.078Z,95.10
2019-03-17T04:09:14.805Z,95.50
2019-03-17T04:11:46.274Z,95.80
2019-03-17T04:14:20.546Z,95.50
2019-03-17T04:16:53.089Z,95.00
2019-03-17T04:19:24.515Z,94.30
2019-03-17T04:21:56.122Z,93.80
2019-03-17T04:24:27.539Z,93.20
2019-03-17T04:26:59.252Z,92.50
2019-03-17T04:29:32.207Z,92.40
2019-03-17T04:32:05.809Z,92.10
2019-03-17T04:34:38.455Z,91.90
2019-03-17T04:37:10.011Z,91.60
2019-03-17T04:39:42.947Z,91.70
2019-03-17T04:42:17.261Z,92.00
2019-03-17T04:44:48.624Z,93.30
2019-03-17T04:47:21.158Z,94.20
2019-03-17T04:49:52.699Z,94.60
2019-03-17T04:52:25.828Z,95.20
2019-03-17T04:54:59.626Z,95.90
2019-03-17T04:57:31.706Z,96.60
2019-03-17T05:00:05.600Z,97.30
2019-03-17T05:02:37.056Z,98.10
2019-03-17T05:05:09.293Z,98.80
2019-03-17T05:07:41.259Z,99.50
2019-03-17T05:10:13.204Z,99.90
2019-03-17T05:12:44.593Z,99.90
2019-03-17T05:15:17.513Z,99.90
2019-03-17T05:17:48.702Z,99.90
2019-03-17T05:20:20.883Z,99.90
2019-03-17T05:22:53.750Z,99.90
2019-03-17T05:25:25.628Z,99.90
2019-03-17T05:27:57.406Z,99.90
2019-03-17T05:30:28.898Z,99.90
2019-03-17T05:33:00.816Z,99.90
2019-03-17T05:35:32.379Z,99.90
2019-03-17T05:38:05.425Z,99.90
2019-03-17T05:40:38.095Z,99.90
2019-03-17T05:43:10.620Z,99.90
2019-03-17T05:45:42.078Z,99.90
2019-03-17T05:48:15.219Z,99.90
2019-03-17T05:50:48.621Z,99.90
2019-03-17T05:53:22.319Z,99.90
2019-03-17T05:55:54.810Z,99.90
2019-03-17T05:58:32.541Z,99.90
2019-03-17T06:01:37.792Z,99.90
2019-03-17T06:04:17.583Z,99.90
2019-03-17T06:06:58.214Z,99.90
2019-03-17T06:09:39.296Z,99.90
2019-03-17T06:12:13.696Z,99.90
2019-03-17T06:14:47.321Z,99.90
2019-03-17T06:17:29.378Z,99.90
2019-03-17T06:20:03.834Z,99.90
2019-03-17T06:22:45.351Z,99.90
2019-03-17T06:25:19.576Z,99.90
2019-03-17T06:27:51.446Z,99.90
2019-03-17T06:30:23.430Z,99.90
2019-03-17T06:32:56.966Z,99.90
2019-03-17T06:35:29.106Z,99.90
2019-03-17T06:38:00.358Z,99.90
2019-03-17T06:40:32.475Z,99.90
2019-03-17T06:43:04.852Z,99.90
2019-03-17T06:45:36.393Z,99.90
2019-03-17T06:48:10.189Z,99.90
2019-03-17T06:50:41.703Z,99.90
2019-03-17T06:53:14.550Z,99.90
2019-03-17T06:55:46.336Z,99.90
2019-03-17T06:58:22.505Z,99.90
2019-03-17T07:00:55.412Z,99.90
2019-03-17T07:03:30.610Z,99.90
2019-03-17T07:06:03.727Z,99.90
2019-03-17T07:08:36.683Z,99.90
2019-03-17T07:11:14.785Z,99.90
2019-03-17T07:13:52.654Z,99.90
2019-03-17T07:16:25.594Z,99.90
2019-03-17T07:19:03.096Z,99.90
2019-03-17T07:21:35.440Z,99.90
2019-03-17T07:24:09.989Z,99.90
2019-03-17T07:26:42.439Z,99.90
2019-03-17T07:29:15.519Z,99.90
2019-03-17T07:31:47.350Z,99.90
2019-03-17T07:34:19.343Z,99.90
2019-03-17T07:36:51.592Z,99.90
2019-03-17T07:42:01.702Z,99.90
2019-03-17T07:44:36.261Z,99.90
2019-03-17T07:47:10.214Z,99.90
2019-03-17T07:49:49.795Z,99.90
2019-03-17T07:52:27.145Z,99.90
2019-03-17T07:55:05.794Z,99.90
2019-03-17T07:57:36.676Z,99.90
2019-03-17T08:02:38.174Z,99.90
2019-03-17T08:05:17.505Z,99.90
2019-03-17T08:07:50.273Z,99.90
2019-03-17T08:10:28.848Z,99.90
2019-03-17T08:13:03.089Z,99.90
2019-03-17T08:15:37.988Z,99.90
2019-03-17T08:18:10.940Z,99.90
2019-03-17T08:20:44.199Z,99.90
2019-03-17T08:23:16.802Z,99.90
2019-03-17T08:25:48.669Z,99.90
2019-03-17T08:28:21.963Z,99.90
2019-03-17T08:30:54.466Z,99.90
2019-03-17T08:33:27.488Z,99.90
2019-03-17T08:36:01.204Z,99.80
2019-03-17T08:38:33.602Z,99.90
2019-03-17T08:41:06.017Z,99.90
2019-03-17T08:43:53.828Z,99.90
2019-03-17T08:46:18.889Z,99.90
2019-03-17T08:48:53.456Z,99.90
2019-03-17T08:51:31.214Z,99.90
2019-03-17T08:54:05.811Z,99.90
2019-03-17T08:56:40.677Z,99.60
2019-03-17T08:59:20.080Z,99.90
2019-03-17T09:01:52.693Z,99.90
2019-03-17T09:04:24.830Z,99.20
2019-03-17T09:06:56.263Z,98.90
2019-03-17T09:09:29.592Z,99.60
2019-03-17T09:12:03.826Z,99.10
2019-03-17T09:14:39.630Z,98.70
2019-03-17T09:17:14.576Z,98.30
2019-03-17T09:19:49.760Z,98.10
2019-03-17T09:22:22.821Z,98.00
2019-03-17T09:24:56.572Z,97.90
2019-03-17T09:27:35.238Z,97.80
2019-03-17T09:30:12.519Z,98.00
2019-03-17T09:32:48.565Z,97.60
2019-03-17T09:35:22.094Z,98.10
2019-03-17T09:37:55.074Z,98.50
2019-03-17T09:40:28.373Z,98.50
2019-03-17T09:43:03.646Z,97.60
2019-03-17T09:45:36.056Z,97.60
2019-03-17T09:48:10.938Z,97.40
2019-03-17T09:50:43.852Z,95.00
2019-03-17T09:53:16.555Z,94.10
2019-03-17T09:55:49.187Z,94.00
2019-03-17T09:58:21.084Z,94.50
2019-03-17T10:00:53.858Z,94.20
2019-03-17T10:03:26.061Z,93.00
2019-03-17T10:05:59.940Z,92.70
2019-03-17T10:08:36.140Z,91.70
2019-03-17T10:11:10.623Z,91.60
2019-03-17T10:13:44.172Z,90.80
2019-03-17T10:16:19.160Z,91.20
2019-03-17T10:18:54.547Z,91.80
2019-03-17T10:21:27.548Z,91.40
2019-03-17T10:24:13.974Z,91.00
2019-03-17T10:26:49.785Z,91.60
2019-03-17T10:31:56.533Z,96.10
2019-03-17T10:34:30.075Z,99.90
2019-03-17T10:37:03.813Z,99.90
2019-03-17T10:39:34.431Z,99.50
2019-03-17T10:42:08.517Z,99.70
2019-03-17T10:44:42.694Z,99.70
2019-03-17T10:47:15.819Z,99.90
2019-03-17T10:49:48.449Z,99.60
2019-03-17T10:52:22.543Z,98.80
2019-03-17T10:54:57.741Z,97.10
2019-03-17T10:57:30.165Z,93.70
2019-03-17T11:00:02.648Z,90.70
2019-03-17T11:02:36.089Z,88.00
2019-03-17T11:05:09.518Z,86.70
2019-03-17T11:07:41.252Z,87.00
2019-03-17T11:10:13.281Z,83.30
2019-03-17T11:12:47.746Z,82.00
2019-03-17T11:15:21.592Z,82.80
2019-03-17T11:17:53.612Z,83.70
2019-03-17T11:20:25.783Z,81.50
2019-03-17T11:22:58.104Z,82.00
2019-03-17T11:25:31.202Z,86.50
2019-03-17T11:28:05.663Z,87.80
2019-03-17T11:30:56.574Z,90.20
2019-03-17T11:33:34.442Z,91.70
2019-03-17T11:36:09.094Z,90.80
2019-03-17T11:38:41.963Z,87.20
2019-03-17T11:41:17.771Z,86.20
2019-03-17T11:43:54.076Z,83.80
2019-03-17T11:46:30.388Z,81.80
2019-03-17T11:49:06.151Z,82.80
2019-03-17T11:51:39.176Z,79.00
2019-03-17T11:54:14.510Z,76.20
2019-03-17T11:56:49.884Z,75.60
2019-03-17T11:59:25.408Z,74.80
2019-03-17T12:01:59.505Z,75.90
2019-03-17T12:04:32.532Z,75.00
2019-03-17T12:07:07.526Z,74.30
2019-03-17T12:09:49.732Z,73.90
2019-03-17T12:12:15.206Z,73.50
2019-03-17T12:14:48.438Z,73.20
2019-03-17T12:17:20.848Z,71.10
2019-03-17T12:19:52.881Z,69.90
2019-03-17T12:22:37.994Z,68.70
2019-03-17T12:25:13.911Z,69.70
2019-03-17T12:27:46.254Z,71.90
2019-03-17T12:30:24.628Z,70.70
2019-03-17T12:33:05.344Z,70.40
2019-03-17T12:35:45.678Z,70.80
2019-03-17T12:38:20.504Z,73.80
2019-03-17T12:40:52.751Z,74.40
2019-03-17T12:43:28.371Z,77.10
2019-03-17T12:46:01.422Z,77.20
2019-03-17T12:48:36.162Z,77.50
2019-03-17T12:51:10.238Z,77.40
2019-03-17T12:53:59.404Z,76.70
2019-03-17T12:56:33.673Z,75.60
2019-03-17T12:59:07.815Z,74.80
2019-03-17T13:01:39.973Z,73.10
2019-03-17T13:04:12.798Z,70.10
2019-03-17T13:09:13.141Z,67.50
2019-03-17T13:11:45.855Z,68.10
2019-03-17T13:14:24.599Z,67.50
2019-03-17T13:16:57.159Z,67.30
2019-03-17T13:19:33.212Z,68.70
2019-03-17T13:22:05.890Z,70.80
2019-03-17T13:24:45.913Z,73.10
2019-03-17T13:27:18.264Z,74.90
2019-03-17T13:29:50.736Z,76.30
2019-03-17T13:32:25.241Z,75.10
2019-03-17T13:35:01.695Z,74.60
2019-03-17T13:37:35.319Z,75.30
2019-03-17T13:40:13.109Z,72.70
2019-03-17T13:42:47.807Z,70.80
2019-03-17T13:45:20.393Z,70.50
2019-03-17T13:47:53.560Z,69.30
2019-03-17T13:50:29.298Z,70.50
2019-03-17T13:53:02.698Z,71.90
2019-03-17T13:55:34.496Z,72.00
2019-03-17T13:58:06.092Z,69.70
2019-03-17T14:00:38.270Z,66.70
2019-03-17T14:03:10.671Z,65.20
2019-03-17T14:05:44.006Z,66.80
2019-03-17T14:08:16.146Z,67.30
2019-03-17T14:10:47.909Z,70.80
2019-03-17T14:13:25.535Z,76.60
2019-03-17T14:15:57.567Z,81.10
2019-03-17T14:18:29.349Z,83.30
2019-03-17T14:21:01.846Z,81.90
2019-03-17T14:23:34.997Z,77.30
2019-03-17T14:26:07.497Z,79.90
2019-03-17T14:28:40.359Z,78.30
2019-03-17T14:31:13.213Z,78.80
2019-03-17T14:33:45.629Z,77.30
2019-03-17T14:36:18.402Z,76.20
2019-03-17T14:38:51.314Z,76.00
2019-03-17T14:41:24.992Z,76.20
2019-03-17T14:44:00.312Z,76.70
2019-03-17T14:46:35.655Z,76.60
2019-03-17T14:49:11.324Z,77.70
2019-03-17T14:51:48.564Z,79.30
2019-03-17T14:54:21.139Z,79.40
2019-03-17T14:56:54.188Z,79.70
2019-03-17T14:59:27.769Z,80.10
2019-03-17T15:02:00.601Z,79.00
2019-03-17T15:04:33.191Z,79.00
2019-03-17T15:07:05.908Z,75.00
2019-03-17T15:09:54.607Z,73.30
2019-03-17T15:15:22.176Z,74.00
2019-03-17T15:18:01.468Z,75.90
2019-03-17T15:20:36.147Z,75.50
2019-03-17T15:23:09.258Z,74.40
2019-03-17T15:25:42.617Z,75.10
2019-03-17T15:28:14.919Z,75.90
2019-03-17T15:31:05.609Z,76.80
2019-03-17T15:33:23.122Z,78.20
2019-03-17T15:35:55.559Z,78.60
2019-03-17T15:38:27.718Z,78.60
2019-03-17T15:41:01.313Z,78.60
2019-03-17T15:43:34.890Z,78.90
2019-03-17T15:46:12.379Z,79.70
2019-03-17T15:48:49.423Z,79.70
2019-03-17T15:51:22.122Z,78.70
2019-03-17T15:53:56.471Z,79.30
2019-03-17T15:56:30.216Z,79.20
2019-03-17T15:59:10.011Z,78.30
2019-03-17T16:01:45.560Z,78.70
2019-03-17T16:04:19.682Z,79.00
2019-03-17T16:06:52.917Z,79.70
2019-03-17T16:09:28.851Z,80.10
2019-03-17T16:12:06.575Z,80.10
2019-03-17T16:14:45.403Z,80.30
2019-03-17T16:17:18.316Z,80.90
2019-03-17T16:19:50.865Z,80.40
2019-03-17T16:22:26.859Z,81.50
2019-03-17T16:24:59.130Z,82.20
2019-03-17T16:27:31.301Z,83.30
2019-03-17T16:30:06.396Z,82.70
2019-03-17T16:32:38.689Z,83.00
2019-03-17T16:35:12.203Z,82.70
2019-03-17T16:37:45.377Z,82.90
2019-03-17T16:40:18.854Z,82.90
2019-03-17T16:42:53.595Z,83.10
2019-03-17T16:45:27.306Z,83.80
2019-03-17T16:48:00.478Z,83.80
2019-03-17T16:50:39.051Z,84.30
2019-03-17T16:53:14.969Z,84.30
2019-03-17T16:55:54.765Z,84.20
2019-03-17T16:58:29.418Z,84.30
2019-03-17T17:01:06.435Z,84.00
2019-03-17T17:03:44.811Z,83.70
2019-03-17T17:06:18.810Z,84.00
2019-03-17T17:08:55.297Z,83.40
2019-03-17T17:11:30.159Z,83.80
2019-03-17T17:14:19.695Z,83.00
2019-03-17T17:16:56.963Z,83.40
2019-03-17T17:21:58.838Z,84.10
2019-03-17T17:24:46.981Z,85.40
2019-03-17T17:27:21.287Z,86.80
2019-03-17T17:29:55.873Z,87.80
2019-03-17T17:32:38.807Z,88.20
2019-03-17T17:35:35.542Z,88.50
2019-03-17T17:38:10.557Z,88.90
2019-03-17T17:40:45.606Z,89.40
2019-03-17T17:43:25.894Z,89.80
2019-03-17T17:45:59.971Z,90.20
2019-03-17T17:48:36.254Z,90.50
2019-03-17T17:51:12.190Z,90.90
2019-03-17T17:53:47.790Z,91.00
2019-03-17T17:56:22.652Z,89.30
2019-03-17T17:58:56.952Z,89.60
2019-03-17T18:01:31.319Z,89.20
2019-03-17T18:04:07.636Z,88.90
2019-03-17T18:06:44.908Z,89.30
2019-03-17T18:09:22.862Z,89.90
2019-03-17T18:12:02.059Z,90.50
2019-03-17T18:14:38.371Z,90.70
2019-03-17T18:17:15.883Z,91.00
2019-03-17T18:19:48.333Z,91.60
2019-03-17T18:22:28.410Z,92.20
2019-03-17T18:25:07.354Z,92.90
2019-03-17T18:27:41.118Z,93.20
2019-03-17T18:30:15.611Z,93.50
2019-03-17T18:32:55.129Z,93.40
2019-03-17T18:35:30.774Z,93.40
2019-03-17T18:38:07.232Z,93.40
2019-03-17T18:40:42.315Z,92.90
2019-03-17T18:46:04.107Z,90.10
2019-03-17T18:48:37.134Z,90.00
2019-03-17T18:51:15.993Z,89.80
2019-03-17T18:53:51.559Z,89.80
2019-03-17T18:56:27.470Z,89.70
2019-03-17T18:59:00.528Z,89.90
2019-03-17T19:01:41.998Z,89.80
2019-03-17T19:04:19.021Z,89.70
2019-03-17T19:06:53.756Z,89.60
2019-03-17T19:09:25.847Z,89.60
2019-03-17T19:11:58.993Z,89.70
2019-03-17T19:14:31.156Z,89.80
2019-03-17T19:17:03.530Z,89.90
2019-03-17T19:19:36.555Z,90.20
2019-03-17T19:22:10.147Z,90.40
2019-03-17T19:24:43.447Z,90.70
2019-03-17T19:27:17.819Z,90.80
2019-03-17T19:29:50.292Z,90.80
2019-03-17T19:32:24.305Z,90.90
2019-03-17T19:34:58.008Z,90.90
2019-03-17T19:37:32.297Z,91.10
2019-03-17T19:40:05.208Z,91.40
2019-03-17T19:42:39.404Z,91.60
2019-03-17T19:45:16.736Z,92.10
2019-03-17T19:47:50.277Z,92.50
2019-03-17T19:50:24.455Z,92.90
2019-03-17T19:53:03.584Z,93.20
2019-03-17T19:55:39.148Z,93.70
2019-03-17T19:58:15.468Z,93.90
2019-03-17T20:00:48.477Z,94.30
2019-03-17T20:03:33.622Z,94.50
2019-03-17T20:06:10.556Z,94.50
2019-03-17T20:08:43.435Z,94.60
2019-03-17T20:11:16.155Z,94.70
2019-03-17T20:13:55.597Z,95.10
2019-03-17T20:16:29.299Z,95.30
2019-03-17T20:19:05.220Z,95.70
2019-03-17T20:21:38.107Z,95.90
2019-03-17T20:24:07.104Z,96.00
2019-03-17T20:26:41.551Z,96.20
2019-03-17T20:29:15.178Z,96.40
2019-03-17T20:31:48.190Z,96.40
2019-03-17T20:34:22.061Z,96.40
2019-03-17T20:36:56.261Z,96.40
2019-03-17T20:39:29.457Z,96.40
2019-03-17T20:42:02.507Z,96.40
2019-03-17T20:44:36.448Z,96.40
2019-03-17T20:47:09.914Z,96.50
2019-03-17T20:49:42.655Z,96.50
2019-03-17T20:52:15.591Z,96.50
2019-03-17T20:54:49.239Z,96.30
2019-03-17T20:57:23.032Z,96.30
2019-03-17T20:59:55.821Z,96.30
2019-03-17T21:02:28.814Z,96.10
2019-03-17T21:05:02.305Z,96.00
2019-03-17T21:07:37.794Z,95.90
2019-03-17T21:10:12.939Z,95.90
2019-03-17T21:12:46.403Z,95.90
2019-03-17T21:15:23.175Z,95.90
2019-03-17T21:17:57.196Z,95.90
2019-03-17T21:20:30.671Z,96.00
2019-03-17T21:23:04.998Z,96.00
2019-03-17T21:25:38.695Z,96.10
2019-03-17T21:28:12.002Z,96.20
2019-03-17T21:30:45.067Z,96.10
2019-03-17T21:33:18.542Z,96.00
2019-03-17T21:35:53.956Z,96.00
2019-03-17T21:38:28.492Z,95.90
2019-03-17T21:41:07.178Z,95.70
2019-03-17T21:43:37.386Z,95.60
2019-03-17T21:46:11.783Z,95.30
2019-03-17T21:48:44.888Z,95.40
2019-03-17T21:51:18.023Z,95.50
2019-03-17T21:53:51.171Z,95.60
2019-03-17T21:56:25.064Z,95.70
2019-03-17T21:58:57.900Z,96.00
2019-03-17T22:01:32.200Z,96.10
2019-03-17T22:04:05.417Z,96.20
2019-03-17T22:06:39.068Z,96.30
2019-03-17T22:09:13.290Z,96.40
2019-03-17T22:11:46.774Z,96.40
2019-03-17T22:14:19.888Z,96.80
2019-03-17T22:16:53.073Z,96.90
2019-03-17T22:19:26.058Z,97.00
2019-03-17T22:22:00.015Z,97.10
2019-03-17T22:24:33.120Z,97.20
2019-03-17T22:27:05.685Z,97.30
2019-03-17T22:29:37.743Z,97.50
2019-03-17T22:32:10.725Z,97.50
2019-03-17T22:34:44.193Z,97.70
2019-03-17T22:37:17.030Z,97.70
2019-03-17T22:39:45.902Z,97.70
2019-03-17T22:42:19.358Z,97.70
2019-03-17T22:44:54.282Z,97.70
2019-03-17T22:47:27.623Z,97.80
2019-03-17T22:50:00.584Z,97.80
2019-03-17T22:52:36.238Z,97.90
2019-03-17T22:55:09.659Z,98.10
2019-03-17T22:57:41.906Z,98.30
2019-03-17T23:00:41.996Z,98.40
2019-03-17T23:03:29.774Z,98.40
2019-03-17T23:06:06.228Z,98.60
2019-03-17T23:08:39.668Z,98.80
2019-03-17T23:11:12.435Z,98.90
2019-03-17T23:13:45.277Z,98.80
2019-03-17T23:16:18.815Z,98.90
2019-03-17T23:18:51.546Z,98.90
2019-03-17T23:21:24.406Z,98.80
2019-03-17T23:23:56.329Z,99.00
2019-03-17T23:26:28.521Z,99.10
2019-03-17T23:29:01.143Z,99.10
2019-03-17T23:31:33.247Z,99.10
2019-03-17T23:34:04.948Z,99.00
2019-03-17T23:36:37.640Z,99.00
2019-03-17T23:39:08.296Z,99.10
2019-03-17T23:41:40.650Z,99.20
2019-03-17T23:44:13.501Z,99.10
2019-03-17T23:46:45.510Z,99.10
2019-03-17T23:49:17.943Z,99.20
2019-03-17T23:51:51.043Z,99.20
2019-03-17T23:54:24.454Z,99.40
2019-03-17T23:56:56.953Z,99.60
2019-03-17T23:59:29.478Z,99.70
